createdAt,value
2023-03-23T00:10:00.475Z,57
2023-03-23T00:15:01.343Z,56
2023-03-23T00:20:01.470Z,56
2023-03-23T00:25:07.996Z,55
2023-03-23T00:30:07.684Z,55
2023-03-23T00:35:08.132Z,55
2023-03-23T00:40:06.097Z,54
2023-03-23T00:45:06.033Z,54
2023-03-23T00:50:07.690Z,54
2023-03-23T00:55:04.587Z,54
2023-03-23T00:59:22.315Z,54
2023-03-23T01:04:21.800Z,54
2023-03-23T01:14:18.963Z,53
2023-03-23T01:19:19.103Z,53
2023-03-23T01:24:18.537Z,53
2023-03-23T01:29:18.909Z,54
2023-03-23T01:34:16.520Z,53
2023-03-23T01:39:15.937Z,52
2023-03-23T01:44:15.268Z,52
2023-03-23T01:49:15.531Z,52
2023-03-23T01:54:14.539Z,52
2023-03-23T01:59:00.539Z,51
2023-03-23T02:03:59.738Z,52
2023-03-23T02:08:59.565Z,51
2023-03-23T02:14:01.076Z,51
2023-03-23T02:19:07.845Z,51
2023-03-23T02:24:08.418Z,51
2023-03-23T02:29:09.714Z,50
2023-03-23T02:34:05.895Z,51
2023-03-23T02:39:06.112Z,50
2023-03-23T02:44:07.492Z,50
2023-03-23T02:49:04.533Z,50
2023-03-23T02:54:03.947Z,51
2023-03-23T02:59:04.523Z,50
2023-03-23T03:03:52.481Z,50
2023-03-23T03:08:52.059Z,51
2023-03-23T03:13:51.502Z,51
2023-03-23T03:18:51.113Z,51
2023-03-23T03:23:50.346Z,51
2023-03-23T03:28:50.325Z,51
2023-03-23T03:33:50.287Z,51
2023-03-23T03:38:49.970Z,52
2023-03-23T03:43:51.279Z,52
2023-03-23T03:48:47.566Z,53
2023-03-23T03:53:48.257Z,54
2023-03-23T03:58:47.067Z,54
2023-03-23T04:01:08.970Z,54
2023-03-23T04:05:07.810Z,54
2023-03-23T04:15:07.690Z,54
2023-03-23T04:20:08.579Z,55
2023-03-23T04:25:07.600Z,54
2023-03-23T04:30:05.131Z,55
2023-03-23T04:35:23.413Z,55
2023-03-23T04:40:04.355Z,55
2023-03-23T04:45:02.151Z,56
2023-03-23T04:50:02.028Z,56
2023-03-23T04:55:01.228Z,56
2023-03-23T04:59:07.175Z,56
2023-03-23T05:04:06.520Z,57
2023-03-23T05:09:06.114Z,58
2023-03-23T05:14:06.405Z,59
2023-03-23T05:19:05.830Z,61
2023-03-23T05:24:06.982Z,62
2023-03-23T05:29:03.465Z,64
2023-03-23T05:34:03.554Z,64
2023-03-23T05:39:03.524Z,65
2023-03-23T05:44:03.020Z,65
2023-03-23T05:49:02.730Z,64
2023-03-23T05:54:02.802Z,66
2023-03-23T05:59:02.259Z,66
2023-03-23T06:04:03.776Z,66
2023-03-23T06:09:00.083Z,66
2023-03-23T06:13:59.916Z,68
2023-03-23T06:18:59.286Z,68
2023-03-23T06:24:09.265Z,69
2023-03-23T06:28:59.228Z,70
2023-03-23T06:34:08.684Z,70
2023-03-23T06:39:10.430Z,71
2023-03-23T06:44:07.185Z,71
2023-03-23T06:49:06.676Z,71
2023-03-23T06:54:06.836Z,71
2023-03-23T06:59:04.939Z,72
2023-03-23T07:04:04.436Z,71
2023-03-23T07:09:04.460Z,71
2023-03-23T07:14:03.133Z,72
2023-03-23T07:24:03.408Z,73
2023-03-23T07:28:51.331Z,73
2023-03-23T07:33:51.112Z,75
2023-03-23T07:38:50.534Z,75
2023-03-23T07:43:50.195Z,74
2023-03-23T07:48:49.752Z,75
2023-03-23T07:53:49.616Z,74
2023-03-23T07:58:49.785Z,75
2023-03-23T08:03:49.560Z,75
2023-03-23T08:08:50.806Z,76
2023-03-23T08:13:47.278Z,75
2023-03-23T08:18:47.362Z,75
2023-03-23T08:23:46.682Z,75
2023-03-23T08:28:46.707Z,75
2023-03-23T08:33:44.342Z,74
2023-03-23T08:38:44.677Z,72
2023-03-23T08:43:43.809Z,69
2023-03-23T08:48:43.758Z,69
2023-03-23T08:53:42.676Z,67
2023-03-23T08:58:42.529Z,67
2023-03-23T09:10:01.403Z,68
2023-03-23T09:15:01.365Z,68
2023-03-23T09:20:00.708Z,70
2023-03-23T09:25:00.497Z,71
2023-03-23T09:29:59.954Z,70
2023-03-23T09:34:59.550Z,70
2023-03-23T09:40:06.636Z,71
2023-03-23T09:45:09.443Z,74
2023-03-23T09:50:08.460Z,73
2023-03-23T09:55:08.830Z,75
2023-03-23T09:59:04.411Z,77
2023-03-23T10:04:04.448Z,78
2023-03-23T10:09:07.948Z,79
2023-03-23T10:15:05.882Z,80
2023-03-23T10:19:01.540Z,80
2023-03-23T10:24:00.944Z,81
2023-03-23T10:29:00.346Z,81
2023-03-23T10:33:59.985Z,81
2023-03-23T10:39:01.488Z,81
2023-03-23T10:44:08.139Z,82
2023-03-23T10:49:07.835Z,82
2023-03-23T10:54:09.150Z,80
2023-03-23T10:59:06.211Z,79
2023-03-23T11:04:05.700Z,78
2023-03-23T11:09:05.934Z,78
2023-03-23T11:14:04.983Z,78
2023-03-23T11:19:05.398Z,79
2023-03-23T11:24:19.549Z,80
2023-03-23T11:29:06.180Z,80
2023-03-23T11:34:16.424Z,80
2023-03-23T11:39:03.682Z,79
2023-03-23T11:44:04.885Z,76
2023-03-23T11:48:52.053Z,76
2023-03-23T11:53:51.523Z,75
2023-03-23T11:58:51.092Z,74
2023-03-23T12:03:50.711Z,73
2023-03-23T12:08:48.943Z,72
2023-03-23T12:13:53.315Z,72
2023-03-23T12:18:48.610Z,71
2023-03-23T12:23:50.145Z,71
2023-03-23T12:28:46.481Z,70
2023-03-23T12:33:46.392Z,69
2023-03-23T12:38:46.136Z,69
2023-03-23T12:44:06.176Z,69
2023-03-23T12:48:45.416Z,67
2023-03-23T12:53:43.970Z,67
2023-03-23T12:58:43.021Z,67
2023-03-23T13:05:04.734Z,66
2023-03-23T13:10:05.365Z,66
2023-03-23T13:20:04.218Z,68
2023-03-23T13:25:05.524Z,66
2023-03-23T13:30:02.370Z,66
2023-03-23T13:35:01.969Z,65
2023-03-23T13:40:01.421Z,66
2023-03-23T13:45:00.285Z,64
2023-03-23T13:50:00.048Z,65
2023-03-23T13:55:00.154Z,65
2023-03-23T14:29:16.006Z,64
2023-03-23T15:04:00.969Z,64
2023-03-23T15:09:01.273Z,65
2023-03-23T15:14:08.057Z,65
2023-03-23T15:19:07.459Z,66
2023-03-23T15:24:08.442Z,66
2023-03-23T15:29:05.611Z,65
2023-03-23T15:34:05.455Z,65
2023-03-23T15:39:07.054Z,66
2023-03-23T15:44:04.175Z,65
2023-03-23T15:49:03.684Z,66
2023-03-23T15:54:05.858Z,66
2023-03-23T15:58:53.751Z,66
2023-03-23T16:10:11.994Z,65
2023-03-23T16:15:11.784Z,66
2023-03-23T16:20:11.059Z,66
2023-03-23T16:25:10.940Z,66
2023-03-23T16:30:14.964Z,66
2023-03-23T16:35:11.570Z,66
2023-03-23T16:45:08.037Z,68
2023-03-23T16:50:07.300Z,70
2023-03-23T16:55:07.254Z,70
2023-03-23T16:59:25.749Z,73
2023-03-23T17:04:25.789Z,74
2023-03-23T17:09:25.379Z,75
2023-03-23T17:14:26.517Z,75
2023-03-23T17:19:23.094Z,75
2023-03-23T17:24:23.232Z,74
2023-03-23T17:29:22.725Z,73
2023-03-23T17:34:22.554Z,72
2023-03-23T17:39:20.027Z,72
2023-03-23T17:44:19.896Z,72
2023-03-23T17:49:19.321Z,71
2023-03-23T17:54:18.627Z,71
2023-03-23T17:59:05.428Z,70
2023-03-23T18:04:04.865Z,70
2023-03-23T18:09:04.783Z,70
2023-03-23T18:14:04.295Z,71
2023-03-23T18:19:05.465Z,71
2023-03-23T18:24:10.112Z,71
2023-03-23T18:29:02.296Z,70
2023-03-23T18:34:01.575Z,68
2023-03-23T18:38:59.956Z,67
2023-03-23T18:43:59.740Z,64
2023-03-23T18:49:00.160Z,63
2023-03-23T18:53:59.537Z,61
2023-03-23T18:59:00.648Z,60
2023-03-23T19:04:07.742Z,60
2023-03-23T19:09:07.770Z,59
2023-03-23T19:14:13.763Z,60
2023-03-23T19:19:05.585Z,59
2023-03-23T19:24:05.159Z,59
2023-03-23T19:29:36.090Z,58
2023-03-23T19:34:04.775Z,58
2023-03-23T19:39:04.609Z,58
2023-03-23T19:44:04.597Z,58
2023-03-23T19:49:05.142Z,58
2023-03-23T19:53:52.418Z,59
2023-03-23T19:58:52.309Z,58
2023-03-23T20:03:51.996Z,58
2023-03-23T20:08:55.595Z,58
2023-03-23T20:13:50.177Z,57
2023-03-23T20:18:50.162Z,57
2023-03-23T20:23:49.075Z,57
2023-03-23T20:28:48.704Z,57
2023-03-23T20:33:48.377Z,56
2023-03-23T20:38:47.448Z,56
2023-03-23T20:43:46.925Z,56
2023-03-23T20:48:47.948Z,56
2023-03-23T20:53:44.419Z,56
2023-03-23T20:58:44.574Z,56
2023-03-23T21:05:06.443Z,56
2023-03-23T21:10:03.926Z,56
2023-03-23T21:15:03.920Z,57
2023-03-23T21:20:03.410Z,60
2023-03-23T21:25:03.083Z,62
2023-03-23T21:30:02.579Z,64
2023-03-23T21:35:01.803Z,68
2023-03-23T21:40:01.189Z,69
2023-03-23T21:45:00.578Z,70
2023-03-23T21:50:01.763Z,72
2023-03-23T21:55:09.263Z,73
2023-03-23T21:59:24.982Z,75
2023-03-23T22:04:24.819Z,74
2023-03-23T22:09:22.518Z,74
2023-03-23T22:14:22.416Z,74
2023-03-23T22:19:21.545Z,76
2023-03-23T22:24:21.104Z,76
2023-03-23T22:29:20.618Z,76
2023-03-23T22:34:19.865Z,78
2023-03-23T22:39:20.262Z,77
2023-03-23T22:44:20.189Z,77
2023-03-23T22:49:17.748Z,77
2023-03-23T22:54:17.565Z,78
2023-03-23T22:59:03.972Z,78
2023-03-23T23:04:04.080Z,80
2023-03-23T23:09:03.125Z,82
2023-03-23T23:14:03.512Z,82
2023-03-23T23:19:02.621Z,83
2023-03-23T23:24:02.579Z,82
2023-03-23T23:29:00.761Z,83
2023-03-23T23:34:00.365Z,85
2023-03-23T23:38:59.980Z,87
2023-03-23T23:43:59.324Z,88
2023-03-23T23:49:09.372Z,90
2023-03-23T23:54:10.025Z,91
2023-03-23T23:59:09.503Z,91
